createdAt,value
2018-12-29T00:02:24.519Z,1.30
2018-12-29T00:04:54.799Z,1.30
2018-12-29T00:07:25.507Z,1.40
2018-12-29T00:09:55.920Z,1.40
2018-12-29T00:12:26.319Z,1.40
2018-12-29T00:14:58.234Z,1.40
2018-12-29T00:17:29.240Z,1.40
2018-12-29T00:19:59.347Z,1.40
2018-12-29T00:22:29.603Z,1.50
2018-12-29T00:25:00.241Z,1.50
2018-12-29T00:27:31.073Z,1.50
2018-12-29T00:30:01.921Z,1.50
2018-12-29T00:32:32.712Z,1.50
2018-12-29T00:35:03.270Z,1.50
2018-12-29T00:37:34.021Z,1.50
2018-12-29T00:40:04.796Z,1.60
2018-12-29T00:42:35.622Z,1.60
2018-12-29T00:45:06.174Z,1.60
2018-12-29T00:47:36.422Z,1.60
2018-12-29T00:50:07.080Z,1.60
2018-12-29T00:52:37.594Z,1.50
2018-12-29T00:55:08.238Z,1.50
2018-12-29T00:57:38.544Z,1.50
2018-12-29T01:00:09.277Z,1.40
2018-12-29T01:02:39.502Z,1.40
2018-12-29T01:05:10.098Z,1.40
2018-12-29T01:07:40.413Z,1.50
2018-12-29T01:10:10.952Z,1.50
2018-12-29T01:12:41.224Z,1.50
2018-12-29T01:15:11.924Z,1.50
2018-12-29T01:17:42.546Z,1.50
2018-12-29T01:20:12.942Z,1.50
2018-12-29T01:22:43.223Z,1.50
2018-12-29T01:25:13.571Z,1.50
2018-12-29T01:27:44.465Z,1.50
2018-12-29T01:30:15.447Z,1.50
2018-12-29T01:32:45.841Z,1.50
2018-12-29T01:35:16.680Z,1.50
2018-12-29T01:37:47.209Z,1.50
2018-12-29T01:40:17.514Z,1.40
2018-12-29T01:42:48.027Z,1.30
2018-12-29T01:45:18.753Z,1.30
2018-12-29T01:47:49.375Z,1.30
2018-12-29T01:50:20.277Z,1.30
2018-12-29T01:52:51.117Z,1.30
2018-12-29T01:55:22.007Z,1.30
2018-12-29T01:57:52.814Z,1.30
2018-12-29T02:00:22.895Z,1.30
2018-12-29T02:02:53.805Z,1.40
2018-12-29T02:05:24.143Z,1.40
2018-12-29T02:07:55.027Z,1.30
2018-12-29T02:10:25.572Z,1.40
2018-12-29T02:12:55.628Z,1.40
2018-12-29T02:15:26.187Z,1.40
2018-12-29T02:17:56.487Z,1.40
2018-12-29T02:20:27.519Z,1.40
2018-12-29T02:22:58.176Z,1.50
2018-12-29T02:25:28.552Z,1.50
2018-12-29T02:27:58.622Z,1.60
2018-12-29T02:30:29.438Z,1.60
2018-12-29T02:33:00.269Z,1.70
2018-12-29T02:35:30.555Z,1.70
2018-12-29T02:38:01.364Z,1.80
2018-12-29T02:40:31.939Z,1.70
2018-12-29T02:43:02.466Z,1.70
2018-12-29T02:45:33.599Z,1.70
2018-12-29T02:48:03.909Z,1.70
2018-12-29T02:50:34.256Z,1.70
2018-12-29T02:53:04.859Z,1.70
2018-12-29T02:55:35.710Z,1.70
2018-12-29T02:58:06.234Z,1.80
2018-12-29T03:00:36.515Z,1.80
2018-12-29T03:03:06.407Z,1.80
2018-12-29T03:05:36.880Z,1.70
2018-12-29T03:08:07.084Z,1.80
2018-12-29T03:10:37.560Z,1.80
2018-12-29T03:13:08.337Z,1.70
2018-12-29T03:15:41.708Z,1.70
2018-12-29T03:18:11.665Z,1.60
2018-12-29T03:20:42.209Z,1.60
2018-12-29T03:23:12.605Z,1.60
2018-12-29T03:25:43.271Z,1.60
2018-12-29T03:28:13.820Z,1.60
2018-12-29T03:30:44.080Z,1.60
2018-12-29T03:33:14.916Z,1.60
2018-12-29T03:35:45.461Z,1.60
2018-12-29T03:38:16.000Z,1.60
2018-12-29T03:40:46.242Z,1.70
2018-12-29T03:43:16.778Z,1.70
2018-12-29T03:45:49.279Z,1.70
2018-12-29T03:48:19.862Z,1.70
2018-12-29T03:50:50.645Z,1.70
2018-12-29T03:53:21.678Z,1.70
2018-12-29T03:55:52.316Z,1.80
2018-12-29T03:58:22.580Z,1.80
2018-12-29T04:00:53.410Z,1.80
2018-12-29T04:03:24.005Z,1.80
2018-12-29T04:05:54.796Z,1.80
2018-12-29T04:08:25.331Z,1.90
2018-12-29T04:10:55.655Z,1.90
2018-12-29T04:13:26.235Z,1.90
2018-12-29T04:15:58.273Z,1.90
2018-12-29T04:18:29.365Z,1.90
2018-12-29T04:20:59.908Z,1.90
2018-12-29T04:23:30.453Z,1.90
2018-12-29T04:26:01.291Z,1.90
2018-12-29T04:28:32.135Z,1.90
2018-12-29T04:31:05.239Z,2.00
2018-12-29T04:33:36.045Z,2.00
2018-12-29T04:36:06.599Z,2.00
2018-12-29T04:38:37.151Z,2.00
2018-12-29T04:41:07.977Z,2.10
2018-12-29T04:43:38.812Z,2.10
2018-12-29T04:46:09.433Z,2.10
2018-12-29T04:48:40.249Z,2.10
2018-12-29T04:51:11.037Z,2.10
2018-12-29T04:53:41.839Z,2.10
2018-12-29T04:56:12.657Z,2.20
2018-12-29T04:58:42.651Z,2.20
2018-12-29T05:01:13.479Z,2.20
2018-12-29T05:03:43.794Z,2.20
2018-12-29T05:06:14.355Z,2.10
2018-12-29T05:08:45.093Z,2.10
2018-12-29T05:11:16.175Z,2.10
2018-12-29T05:13:46.701Z,2.20
2018-12-29T05:16:17.347Z,2.20
2018-12-29T05:18:47.640Z,2.20
2018-12-29T05:21:17.929Z,2.20
2018-12-29T05:23:48.199Z,2.20
2018-12-29T05:26:18.579Z,2.20
2018-12-29T05:28:49.122Z,2.10
2018-12-29T05:31:19.386Z,2.10
2018-12-29T05:33:49.987Z,2.10
2018-12-29T05:36:21.036Z,2.10
2018-12-29T05:38:51.318Z,2.10
2018-12-29T05:41:21.894Z,2.10
2018-12-29T05:43:52.721Z,2.10
2018-12-29T05:46:23.371Z,2.20
2018-12-29T05:48:53.422Z,2.20
2018-12-29T05:51:23.700Z,2.20
2018-12-29T05:53:54.493Z,2.20
2018-12-29T05:56:25.068Z,2.20
2018-12-29T05:58:55.360Z,2.10
2018-12-29T06:01:25.904Z,2.00
2018-12-29T06:03:56.158Z,2.00
2018-12-29T06:06:26.682Z,1.90
2018-12-29T06:08:57.202Z,1.90
2018-12-29T06:11:27.068Z,1.90
2018-12-29T06:13:57.294Z,1.90
2018-12-29T06:16:27.957Z,1.90
2018-12-29T06:18:58.688Z,1.90
2018-12-29T06:21:28.764Z,1.90
2018-12-29T06:23:59.598Z,1.90
2018-12-29T06:26:29.886Z,1.90
2018-12-29T06:29:00.246Z,1.90
2018-12-29T06:31:31.096Z,2.00
2018-12-29T06:34:01.904Z,2.00
2018-12-29T06:36:32.160Z,2.00
2018-12-29T06:39:03.144Z,2.00
2018-12-29T06:41:33.690Z,2.10
2018-12-29T06:44:04.304Z,2.10
2018-12-29T06:46:35.405Z,2.20
2018-12-29T06:49:05.776Z,2.20
2018-12-29T06:51:39.147Z,2.20
2018-12-29T06:54:09.963Z,2.20
2018-12-29T06:56:40.563Z,2.20
2018-12-29T06:59:10.824Z,2.20
2018-12-29T07:01:41.678Z,2.10
2018-12-29T07:04:11.397Z,2.10
2018-12-29T07:06:42.292Z,2.10
2018-12-29T07:09:13.163Z,2.10
2018-12-29T07:11:43.736Z,2.20
2018-12-29T07:14:14.567Z,2.30
2018-12-29T07:16:45.123Z,2.30
2018-12-29T07:19:15.727Z,2.30
2018-12-29T07:21:46.268Z,2.40
2018-12-29T07:24:16.812Z,2.40
2018-12-29T07:26:47.375Z,2.50
2018-12-29T07:29:18.248Z,2.50
2018-12-29T07:31:48.788Z,2.50
2018-12-29T07:34:19.313Z,2.50
2018-12-29T07:36:49.385Z,2.50
2018-12-29T07:39:19.893Z,2.50
2018-12-29T07:41:50.165Z,2.60
2018-12-29T07:44:20.432Z,2.60
2018-12-29T07:46:51.063Z,2.60
2018-12-29T07:49:21.457Z,2.70
2018-12-29T07:51:52.269Z,2.60
2018-12-29T07:54:22.950Z,2.60
2018-12-29T07:56:53.273Z,2.60
2018-12-29T07:59:23.867Z,2.60
2018-12-29T08:01:54.136Z,2.60
2018-12-29T08:04:24.936Z,2.60
2018-12-29T08:06:55.557Z,2.60
2018-12-29T08:09:26.429Z,2.60
2018-12-29T08:11:57.267Z,2.50
2018-12-29T08:14:27.550Z,2.40
2018-12-29T08:16:57.636Z,2.40
2018-12-29T08:19:28.210Z,2.40
2018-12-29T08:21:58.815Z,2.40
2018-12-29T08:24:29.335Z,2.40
2018-12-29T08:26:59.357Z,2.40
2018-12-29T08:29:29.344Z,2.50
2018-12-29T08:31:59.915Z,2.40
2018-12-29T08:34:30.803Z,2.50
2018-12-29T08:37:01.055Z,2.40
2018-12-29T08:39:31.592Z,2.40
2018-12-29T08:42:01.907Z,2.40
2018-12-29T08:44:32.792Z,2.40
2018-12-29T08:47:04.604Z,2.40
2018-12-29T08:49:35.715Z,2.40
2018-12-29T08:52:06.001Z,2.40
2018-12-29T08:54:36.351Z,2.40
2018-12-29T08:57:06.963Z,2.40
2018-12-29T08:59:37.505Z,2.40
2018-12-29T09:02:08.059Z,2.40
2018-12-29T09:04:38.344Z,2.50
2018-12-29T09:07:23.263Z,2.50
2018-12-29T09:09:55.450Z,2.50
2018-12-29T09:12:25.777Z,2.60
2018-12-29T09:14:56.017Z,2.60
2018-12-29T09:17:26.290Z,2.60
2018-12-29T09:19:57.199Z,2.60
2018-12-29T09:22:27.331Z,2.70
2018-12-29T09:25:11.920Z,2.70
2018-12-29T09:27:54.038Z,2.70
2018-12-29T09:30:31.215Z,2.70
2018-12-29T09:33:14.968Z,2.70
2018-12-29T09:35:56.301Z,2.70
2018-12-29T09:38:27.560Z,2.70
2018-12-29T09:40:57.814Z,2.80
2018-12-29T09:43:29.302Z,2.90
2018-12-29T09:45:59.346Z,2.90
2018-12-29T09:48:30.225Z,3.00
2018-12-29T09:51:00.234Z,3.10
2018-12-29T09:53:30.658Z,3.20
2018-12-29T09:56:01.694Z,3.30
2018-12-29T09:58:31.995Z,3.40
2018-12-29T10:01:02.150Z,3.50
2018-12-29T10:03:32.745Z,3.60
2018-12-29T10:06:03.245Z,3.60
2018-12-29T10:08:33.798Z,3.70
2018-12-29T10:11:03.710Z,3.80
2018-12-29T10:13:34.499Z,3.90
2018-12-29T10:16:04.815Z,4.00
2018-12-29T10:18:35.134Z,4.10
2018-12-29T10:21:06.389Z,4.20
2018-12-29T10:23:37.078Z,4.30
2018-12-29T10:26:07.468Z,4.40
2018-12-29T10:28:37.822Z,4.60
2018-12-29T10:31:08.340Z,4.60
2018-12-29T10:33:39.330Z,4.70
2018-12-29T10:36:10.061Z,4.80
2018-12-29T10:38:40.666Z,4.70
2018-12-29T10:41:11.045Z,4.70
2018-12-29T10:43:41.620Z,4.70
2018-12-29T10:46:12.284Z,4.70
2018-12-29T10:48:42.844Z,4.70
2018-12-29T10:51:13.465Z,4.70
2018-12-29T10:53:43.872Z,4.70
2018-12-29T10:56:24.022Z,4.60
2018-12-29T10:58:55.450Z,4.50
2018-12-29T11:01:25.780Z,4.50
2018-12-29T11:03:56.568Z,4.50
2018-12-29T11:06:27.306Z,4.60
2018-12-29T11:08:57.882Z,4.60
2018-12-29T11:11:28.333Z,4.60
2018-12-29T11:13:59.190Z,4.50
2018-12-29T11:16:31.577Z,4.60
2018-12-29T11:19:01.835Z,4.60
2018-12-29T11:21:32.672Z,4.60
2018-12-29T11:24:02.840Z,4.60
2018-12-29T11:26:33.624Z,4.70
2018-12-29T11:29:04.286Z,4.80
2018-12-29T11:31:34.832Z,4.90
2018-12-29T11:34:05.446Z,5.00
2018-12-29T11:36:36.203Z,4.90
2018-12-29T11:39:07.310Z,5.00
2018-12-29T11:41:37.838Z,5.10
2018-12-29T11:44:08.537Z,5.10
2018-12-29T11:46:41.590Z,5.10
2018-12-29T11:49:17.988Z,5.20
2018-12-29T11:51:44.555Z,5.20
2018-12-29T11:54:14.920Z,5.30
2018-12-29T11:56:45.379Z,5.40
2018-12-29T11:59:16.080Z,5.30
2018-12-29T12:01:46.619Z,5.30
2018-12-29T12:04:16.916Z,5.30
2018-12-29T12:06:47.756Z,5.30
2018-12-29T12:09:18.654Z,5.20
2018-12-29T12:11:48.998Z,5.20
2018-12-29T12:14:19.553Z,5.20
2018-12-29T12:16:50.180Z,5.20
2018-12-29T12:19:21.058Z,5.20
2018-12-29T12:21:50.927Z,5.30
2018-12-29T12:24:20.952Z,5.40
2018-12-29T12:26:51.273Z,5.40
2018-12-29T12:29:22.109Z,5.30
2018-12-29T12:31:52.928Z,5.30
2018-12-29T12:34:23.413Z,5.30
2018-12-29T12:36:54.073Z,5.40
2018-12-29T12:39:24.777Z,5.40
2018-12-29T12:41:55.413Z,5.40
2018-12-29T12:44:25.943Z,5.40
2018-12-29T12:46:56.599Z,5.40
2018-12-29T12:49:27.299Z,5.40
2018-12-29T12:51:57.545Z,5.40
2018-12-29T12:54:28.090Z,5.40
2018-12-29T12:56:58.465Z,5.30
2018-12-29T12:59:29.471Z,5.30
2018-12-29T13:02:00.333Z,5.30
2018-12-29T13:04:31.127Z,5.30
2018-12-29T13:07:01.719Z,5.30
2018-12-29T13:09:32.165Z,5.30
2018-12-29T13:12:02.163Z,5.30
2018-12-29T13:14:32.729Z,5.30
2018-12-29T13:17:02.995Z,5.30
2018-12-29T13:19:33.827Z,5.30
2018-12-29T13:22:04.531Z,5.30
2018-12-29T13:24:35.031Z,5.40
2018-12-29T13:27:05.801Z,5.40
2018-12-29T13:29:36.399Z,5.30
2018-12-29T13:32:06.825Z,5.30
2018-12-29T13:34:37.709Z,5.20
2018-12-29T13:37:08.548Z,5.10
2018-12-29T13:39:38.983Z,5.10
2018-12-29T13:42:09.589Z,5.20
2018-12-29T13:44:39.617Z,5.20
2018-12-29T13:47:10.147Z,5.20
2018-12-29T13:49:40.814Z,5.20
2018-12-29T13:52:11.341Z,5.20
2018-12-29T13:54:41.419Z,5.10
2018-12-29T13:57:11.968Z,5.00
2018-12-29T13:59:42.343Z,4.90
2018-12-29T14:02:13.013Z,4.90
2018-12-29T14:04:44.026Z,4.90
2018-12-29T14:07:14.989Z,4.90
2018-12-29T14:09:45.413Z,4.90
2018-12-29T14:12:15.936Z,4.90
2018-12-29T14:14:46.744Z,5.00
2018-12-29T14:17:17.561Z,5.00
2018-12-29T14:19:47.818Z,5.10
2018-12-29T14:22:19.054Z,5.10
2018-12-29T14:24:50.909Z,5.00
2018-12-29T14:27:21.175Z,5.00
2018-12-29T14:29:52.166Z,4.90
2018-12-29T14:32:22.549Z,4.90
2018-12-29T14:34:52.635Z,4.80
2018-12-29T14:37:23.515Z,4.80
2018-12-29T14:39:53.887Z,4.80
2018-12-29T14:42:24.683Z,4.90
2018-12-29T14:44:55.315Z,4.80
2018-12-29T14:47:26.261Z,4.90
2018-12-29T14:49:57.126Z,4.90
2018-12-29T14:52:28.099Z,4.90
2018-12-29T14:54:58.121Z,4.90
2018-12-29T14:57:29.043Z,4.80
2018-12-29T14:59:59.328Z,4.80
2018-12-29T15:02:29.606Z,4.70
2018-12-29T15:05:00.374Z,4.70
2018-12-29T15:07:30.568Z,4.60
2018-12-29T15:10:01.043Z,4.60
2018-12-29T15:12:31.362Z,4.50
2018-12-29T15:15:02.166Z,4.50
2018-12-29T15:17:33.158Z,4.40
2018-12-29T15:20:04.295Z,4.40
2018-12-29T15:22:34.888Z,4.40
2018-12-29T15:25:05.738Z,4.40
2018-12-29T15:27:37.146Z,4.30
2018-12-29T15:30:08.187Z,4.40
2018-12-29T15:32:39.094Z,4.40
2018-12-29T15:35:10.108Z,4.40
2018-12-29T15:37:40.630Z,4.50
2018-12-29T15:40:10.994Z,4.50
2018-12-29T15:42:45.100Z,4.60
2018-12-29T15:45:14.014Z,4.60
2018-12-29T15:47:44.688Z,4.60
2018-12-29T15:50:15.477Z,4.50
2018-12-29T15:52:45.956Z,4.50
2018-12-29T15:55:16.636Z,4.50
2018-12-29T15:57:47.179Z,4.50
2018-12-29T16:00:17.871Z,4.50
2018-12-29T16:02:48.569Z,4.50
2018-12-29T16:05:19.018Z,4.50
2018-12-29T16:07:49.581Z,4.50
2018-12-29T16:10:20.122Z,4.60
2018-12-29T16:12:50.582Z,4.60
2018-12-29T16:15:21.564Z,4.60
2018-12-29T16:17:52.443Z,4.60
2018-12-29T16:20:23.365Z,4.60
2018-12-29T16:22:54.829Z,4.50
2018-12-29T16:25:25.769Z,4.50
2018-12-29T16:27:56.852Z,4.50
2018-12-29T16:30:27.574Z,4.50
2018-12-29T16:32:58.751Z,4.50
2018-12-29T16:35:29.465Z,4.50
2018-12-29T16:38:00.744Z,4.60
2018-12-29T16:40:31.134Z,4.60
2018-12-29T16:43:01.955Z,4.50
2018-12-29T16:45:32.725Z,4.50
2018-12-29T16:48:03.609Z,4.50
2018-12-29T16:50:34.445Z,4.50
2018-12-29T16:53:04.858Z,4.50
2018-12-29T16:55:35.753Z,4.60
2018-12-29T16:58:06.473Z,4.60
2018-12-29T17:00:37.089Z,4.60
2018-12-29T17:03:07.968Z,4.60
2018-12-29T17:05:38.319Z,4.60
2018-12-29T17:08:09.061Z,4.60
2018-12-29T17:10:39.485Z,4.60
2018-12-29T17:13:10.161Z,4.60
2018-12-29T17:15:40.721Z,4.60
2018-12-29T17:18:11.803Z,4.60
2018-12-29T17:20:42.561Z,4.50
2018-12-29T17:23:13.078Z,4.50
2018-12-29T17:25:44.365Z,4.50
2018-12-29T17:28:14.718Z,4.50
2018-12-29T17:30:44.914Z,4.50
2018-12-29T17:33:15.445Z,4.50
2018-12-29T17:35:46.020Z,4.50
2018-12-29T17:38:17.352Z,4.50
2018-12-29T17:40:48.489Z,4.50
2018-12-29T17:43:18.945Z,4.50
2018-12-29T17:45:49.401Z,4.50
2018-12-29T17:48:19.591Z,4.50
2018-12-29T17:50:50.127Z,4.60
2018-12-29T17:53:20.943Z,4.70
2018-12-29T17:55:51.778Z,4.70
2018-12-29T17:58:22.027Z,4.70
2018-12-29T18:00:52.847Z,4.70
2018-12-29T18:03:23.289Z,4.70
2018-12-29T18:05:54.158Z,4.60
2018-12-29T18:08:24.975Z,4.60
2018-12-29T18:10:55.574Z,4.50
2018-12-29T18:13:26.462Z,4.30
2018-12-29T18:15:57.138Z,4.30
2018-12-29T18:18:27.827Z,4.20
2018-12-29T18:20:58.198Z,4.20
2018-12-29T18:23:29.010Z,4.10
2018-12-29T18:25:59.883Z,4.10
2018-12-29T18:28:30.566Z,4.00
2018-12-29T18:31:01.244Z,4.00
2018-12-29T18:33:37.245Z,4.00
2018-12-29T18:36:04.376Z,4.00
2018-12-29T18:38:35.187Z,4.00
2018-12-29T18:41:05.008Z,4.00
2018-12-29T18:43:35.596Z,4.00
2018-12-29T18:46:06.195Z,4.00
2018-12-29T18:48:37.077Z,4.00
2018-12-29T18:51:08.086Z,3.90
2018-12-29T18:53:38.395Z,4.00
2018-12-29T18:56:08.898Z,4.00
2018-12-29T18:58:39.709Z,4.00
2018-12-29T19:01:10.399Z,4.10
2018-12-29T19:03:41.355Z,4.00
2018-12-29T19:06:12.357Z,4.00
2018-12-29T19:08:43.247Z,4.00
2018-12-29T19:11:14.090Z,4.00
2018-12-29T19:13:44.749Z,4.00
2018-12-29T19:16:15.731Z,4.10
2018-12-29T19:18:45.741Z,4.20
2018-12-29T19:21:16.645Z,4.20
2018-12-29T19:23:49.209Z,4.20
2018-12-29T19:26:20.312Z,4.30
2018-12-29T19:28:51.143Z,4.30
2018-12-29T19:31:22.161Z,4.30
2018-12-29T19:33:53.176Z,4.30
2018-12-29T19:36:23.577Z,4.40
2018-12-29T19:38:54.187Z,4.40
2018-12-29T19:41:25.183Z,4.50
2018-12-29T19:43:55.975Z,4.50
2018-12-29T19:46:27.147Z,4.50
2018-12-29T19:48:57.905Z,4.50
2018-12-29T19:51:28.630Z,4.50
2018-12-29T19:53:59.210Z,4.60
2018-12-29T19:56:29.189Z,4.60
2018-12-29T19:58:59.843Z,4.50
2018-12-29T20:01:30.479Z,4.50
2018-12-29T20:04:01.761Z,4.60
2018-12-29T20:06:32.591Z,4.60
2018-12-29T20:09:02.853Z,4.60
2018-12-29T20:11:34.344Z,4.60
2018-12-29T20:14:04.729Z,4.60
2018-12-29T20:16:35.642Z,4.60
2018-12-29T20:19:06.591Z,4.70
2018-12-29T20:21:37.291Z,4.70
2018-12-29T20:24:07.806Z,4.70
2018-12-29T20:26:38.753Z,4.70
2018-12-29T20:29:09.082Z,4.80
2018-12-29T20:31:39.982Z,4.80
2018-12-29T20:34:10.853Z,4.80
2018-12-29T20:36:41.215Z,4.80
2018-12-29T20:39:11.826Z,4.80
2018-12-29T20:41:42.590Z,4.80
2018-12-29T20:44:12.966Z,4.80
2018-12-29T20:46:43.377Z,4.80
2018-12-29T20:49:14.076Z,4.90
2018-12-29T20:51:44.662Z,4.90
2018-12-29T20:54:15.338Z,4.90
2018-12-29T20:56:45.619Z,4.90
2018-12-29T20:59:16.455Z,5.00
2018-12-29T21:01:47.047Z,5.00
2018-12-29T21:04:18.074Z,5.00
2018-12-29T21:06:48.991Z,5.10
2018-12-29T21:09:19.518Z,5.10
2018-12-29T21:11:49.858Z,5.10
2018-12-29T21:14:20.842Z,5.10
2018-12-29T21:16:52.376Z,5.10
2018-12-29T21:19:22.751Z,5.10
2018-12-29T21:21:53.585Z,5.20
2018-12-29T21:24:24.075Z,5.20
2018-12-29T21:26:54.922Z,5.20
2018-12-29T21:29:25.697Z,5.20
2018-12-29T21:31:56.412Z,5.20
2018-12-29T21:34:27.294Z,5.20
2018-12-29T21:36:57.685Z,5.20
2018-12-29T21:39:27.734Z,5.20
2018-12-29T21:41:58.111Z,5.20
2018-12-29T21:44:28.454Z,5.20
2018-12-29T21:46:58.496Z,5.20
2018-12-29T21:49:29.550Z,5.20
2018-12-29T21:52:00.322Z,5.20
2018-12-29T21:54:31.143Z,5.20
2018-12-29T21:57:01.996Z,5.10
2018-12-29T21:59:32.748Z,5.10
2018-12-29T22:02:03.260Z,5.10
2018-12-29T22:04:33.595Z,5.10
2018-12-29T22:07:04.422Z,5.10
2018-12-29T22:09:35.116Z,5.10
2018-12-29T22:12:05.826Z,5.10
2018-12-29T22:14:35.957Z,5.10
2018-12-29T22:17:06.584Z,5.10
2018-12-29T22:19:37.128Z,5.10
2018-12-29T22:22:07.754Z,5.10
2018-12-29T22:24:38.889Z,5.10
2018-12-29T22:27:09.503Z,5.10
2018-12-29T22:29:40.441Z,5.10
2018-12-29T22:32:11.001Z,5.10
2018-12-29T22:34:41.813Z,5.20
2018-12-29T22:37:12.727Z,5.30
2018-12-29T22:39:43.146Z,5.30
2018-12-29T22:42:13.637Z,5.40
2018-12-29T22:44:44.235Z,5.40
2018-12-29T22:47:14.894Z,5.40
2018-12-29T22:49:45.185Z,5.60
2018-12-29T22:52:16.132Z,5.70
2018-12-29T22:54:46.983Z,5.80
2018-12-29T22:57:18.026Z,5.90
2018-12-29T22:59:48.975Z,5.90
2018-12-29T23:02:19.462Z,6.00
2018-12-29T23:04:50.426Z,6.00
2018-12-29T23:07:21.527Z,6.00
2018-12-29T23:09:53.174Z,6.10
2018-12-29T23:12:24.598Z,6.10
2018-12-29T23:14:55.124Z,6.20
2018-12-29T23:17:25.957Z,6.20
2018-12-29T23:19:56.618Z,6.20
2018-12-29T23:22:27.353Z,6.30
2018-12-29T23:24:57.880Z,6.20
2018-12-29T23:27:28.182Z,6.20
2018-12-29T23:30:00.587Z,6.20
2018-12-29T23:32:30.983Z,6.20
2018-12-29T23:35:01.349Z,6.20
2018-12-29T23:37:31.956Z,6.20
2018-12-29T23:40:02.776Z,6.20
2018-12-29T23:42:33.092Z,6.20
2018-12-29T23:45:03.694Z,6.10
2018-12-29T23:47:34.320Z,6.20
2018-12-29T23:50:05.429Z,6.20
2018-12-29T23:52:36.112Z,6.20
2018-12-29T23:55:07.154Z,6.20
2018-12-29T23:57:37.798Z,6.20
